Reboucas, Brazil
Current Conditions -  °F | °C
As of 5:00 PM on Thursday 27 Nov 2014 (Local Time) from SBBI Reporting Station
Broken Clouds Broken Clouds  
Wind Chill: 75°   Ceiling: 2700
Heat Index: 75°   Visibility: 6mi
Dew Point: 64°   Wind: 10mph
Humidity: 69%   Direction: 120°ESE
Pressure: 29.97"   Gusts: NA
Location:  25.62°S, 50.69°W
Report Text: SBBI 271900Z 12009KT 9999 BKN027 FEW035TCU 24/18 Q1015
Loading
Personal Weather Stations






























Interactive Weather Map New forecast layout! Learn more

10-Day Weather Forecast

Advertisements
Track Severe Weather on mobile